Time;durP1;ratioP1;P1;durP2;ratioP2;P2;SDS_P1;SDS_P2;PMS_P1;PMS_P2;Temp;Humidity;BMP_temperature;BMP_pressure;BME280_temperature;BME280_humidity;BME280_pressure;Samples;Min_cycle;Max_cycle;Signal;HPM_P1;HPM_P2
2021/08/01 00:01:37;;;;;;;13.75;5.45;;;16.40;99.90;;;;;;5044403;28;20049;-84
2021/08/01 00:04:11;;;;;;;11.07;5.15;;;16.40;99.90;;;;;;5058725;28;20049;-83
2021/08/01 00:07:08;;;;;;;9.60;5.38;;;16.40;99.90;;;;;;5046563;28;20037;-84
2021/08/01 00:09:40;;;;;;;10.52;6.10;;;16.40;99.90;;;;;;5043369;28;20041;-85
2021/08/01 00:12:53;;;;;;;14.25;7.57;;;16.40;99.90;;;;;;5051224;28;20048;-85
2021/08/01 00:15:48;;;;;;;10.43;5.57;;;16.40;99.90;;;;;;5054511;28;20044;-85
2021/08/01 00:18:36;;;;;;;13.35;6.13;;;16.40;99.90;;;;;;5045659;28;20045;-84
2021/08/01 00:21:21;;;;;;;14.90;6.45;;;16.30;99.90;;;;;;5023928;28;20070;-84
2021/08/01 00:24:28;;;;;;;10.20;5.63;;;16.30;99.90;;;;;;5063561;28;20051;-84
2021/08/01 00:27:36;;;;;;;;;;;;;;;;;;;;;
2021/08/01 00:30:31;;;;;;;14.77;5.90;;;16.50;99.90;;;;;;5069304;28;20063;-85
2021/08/01 00:33:45;;;;;;;14.10;7.68;;;16.30;99.90;;;;;;5048949;28;20051;-85
2021/08/01 00:36:37;;;;;;;11.25;5.75;;;16.30;99.90;;;;;;5056079;28;20062;-85
2021/08/01 00:39:28;;;;;;;17.90;6.30;;;15.80;99.90;;;;;;5060481;28;20045;-84
2021/08/01 00:42:00;;;;;;;15.05;6.80;;;16.40;99.90;;;;;;5034215;28;20044;-83
2021/08/01 00:44:39;;;;;;;14.50;5.75;;;16.30;99.90;;;;;;5037980;28;20045;-84
2021/08/01 00:47:29;;;;;;;12.15;5.75;;;16.30;99.90;;;;;;5056487;28;20054;-84
2021/08/01 00:50:07;;;;;;;10.95;6.22;;;16.30;99.90;;;;;;5064316;28;20045;-85
2021/08/01 00:52:45;;;;;;;20.42;6.72;;;16.40;99.90;;;;;;5050455;28;20048;-85
2021/08/01 00:55:21;;;;;;;13.43;6.00;;;16.30;99.90;;;;;;5052166;28;20041;-85
2021/08/01 00:58:10;;;;;;;11.20;6.15;;;16.20;99.90;;;;;;5049744;28;20043;-85
2021/08/01 01:01:07;;;;;;;14.80;6.72;;;16.30;99.90;;;;;;5035359;28;20049;-84
2021/08/01 01:04:12;;;;;;;13.20;6.80;;;16.20;99.90;;;;;;5051315;28;20033;-85
2021/08/01 01:07:17;;;;;;;11.98;5.80;;;16.70;99.90;;;;;;5049115;28;20059;-85
2021/08/01 01:10:07;;;;;;;16.27;6.80;;;15.50;99.90;;;;;;5062589;28;20037;-85
2021/08/01 01:13:21;;;;;;;13.23;6.40;;;16.20;99.90;;;;;;5053452;28;20067;-85
2021/08/01 01:15:59;;;;;;;14.38;6.72;;;16.20;99.90;;;;;;5054937;28;20037;-86
2021/08/01 01:18:54;;;;;;;18.88;6.25;;;17.30;99.90;;;;;;5053725;28;20059;-85
2021/08/01 01:21:41;;;;;;;12.63;5.88;;;16.30;99.90;;;;;;5060507;28;20051;-84
2021/08/01 01:24:30;;;;;;;14.70;6.07;;;16.20;99.90;;;;;;5052304;28;20052;-84
2021/08/01 01:27:13;;;;;;;11.65;5.47;;;15.80;99.90;;;;;;5040670;28;20045;-85
2021/08/01 01:30:00;;;;;;;14.20;7.18;;;16.20;99.90;;;;;;5072392;28;20041;-85
2021/08/01 01:32:55;;;;;;;13.27;7.47;;;16.10;99.90;;;;;;5039316;28;20059;-85
2021/08/01 01:35:55;;;;;;;16.40;7.28;;;16.20;99.90;;;;;;5034876;28;20055;-85
2021/08/01 01:38:32;;;;;;;;;;;16.10;99.90;;;;;;5057484;28;20060;-83
2021/08/01 01:41:20;;;;;;;15.82;7.15;;;16.30;99.90;;;;;;5058918;28;19921;-85
2021/08/01 01:44:14;;;;;;;16.55;7.78;;;16.10;99.90;;;;;;5034632;28;20072;-85
2021/08/01 01:46:53;;;;;;;17.67;7.15;;;16.00;99.90;;;;;;5079043;28;20041;-84
2021/08/01 01:49:45;;;;;;;12.45;6.40;;;16.00;99.90;;;;;;5066698;28;20051;-84
2021/08/01 01:52:24;;;;;;;15.07;6.25;;;16.80;99.90;;;;;;5052039;28;20051;-84
2021/08/01 01:55:11;;;;;;;12.57;5.93;;;16.00;99.90;;;;;;5046925;28;20311;-83
2021/08/01 01:57:49;;;;;;;14.40;5.93;;;15.30;99.90;;;;;;5022816;28;20049;-84
2021/08/01 02:00:26;;;;;;;10.85;5.35;;;16.00;99.90;;;;;;5052949;28;20032;-83
2021/08/01 02:03:15;;;;;;;11.65;5.97;;;14.80;99.90;;;;;;5052160;28;20055;-83
2021/08/01 02:06:27;;;;;;;14.80;6.80;;;15.90;99.90;;;;;;4999829;28;20110;-85
2021/08/01 02:09:43;;;;;;;17.02;7.30;;;16.00;99.90;;;;;;5054777;28;20063;-84
2021/08/01 02:12:48;;;;;;;17.20;6.97;;;16.00;99.90;;;;;;5042644;28;20056;-85
2021/08/01 02:15:49;;;;;;;18.58;7.30;;;16.00;99.90;;;;;;5039394;28;20045;-85
2021/08/01 02:18:43;;;;;;;14.60;6.10;;;15.90;99.90;;;;;;5032027;28;20059;-84
2021/08/01 02:21:23;;;;;;;14.65;7.45;;;16.00;99.90;;;;;;5078270;28;20047;-84
2021/08/01 02:24:01;;;;;;;16.80;6.38;;;16.00;99.90;;;;;;5056769;28;20033;-83
2021/08/01 02:26:46;;;;;;;16.58;6.88;;;16.00;99.90;;;;;;5030376;28;20053;-84
2021/08/01 02:29:46;;;;;;;25.58;8.55;;;16.70;99.90;;;;;;5051774;28;20595;-84
2021/08/01 02:32:22;;;;;;;18.55;8.07;;;16.00;99.90;;;;;;5053513;28;20919;-85
2021/08/01 02:35:03;;;;;;;23.23;6.68;;;16.00;99.90;;;;;;5042218;28;20040;-83
2021/08/01 02:38:01;;;;;;;16.83;6.47;;;16.20;99.90;;;;;;5038454;28;20507;-84
2021/08/01 02:41:01;;;;;;;13.18;6.70;;;15.90;99.90;;;;;;5055437;28;20057;-85
2021/08/01 02:43:40;;;;;;;13.68;6.35;;;16.10;99.90;;;;;;5056594;28;20063;-85
2021/08/01 02:46:27;;;;;;;17.10;7.45;;;15.90;99.90;;;;;;5055567;28;20060;-85
2021/08/01 02:49:21;;;;;;;13.30;5.60;;;16.00;99.90;;;;;;5039184;28;20033;-84
2021/08/01 02:52:01;;;;;;;16.05;7.22;;;16.00;99.90;;;;;;5039598;28;20036;-85
2021/08/01 02:54:32;;;;;;;13.77;6.60;;;16.00;99.90;;;;;;5062109;28;20044;-84
2021/08/01 02:57:08;;;;;;;13.82;6.82;;;16.00;99.90;;;;;;5043091;28;20053;-83
2021/08/01 02:59:58;;;;;;;14.50;6.55;;;16.10;99.90;;;;;;5039581;28;20043;-84
2021/08/01 03:02:32;;;;;;;14.38;6.30;;;16.00;99.90;;;;;;5052938;28;20040;-84
2021/08/01 03:05:12;;;;;;;16.80;7.10;;;16.00;99.90;;;;;;5051415;28;20057;-84
2021/08/01 03:07:53;;;;;;;18.35;6.82;;;16.00;99.90;;;;;;5046693;28;20123;-84
2021/08/01 03:10:29;;;;;;;14.82;7.53;;;16.20;99.90;;;;;;5014138;28;20041;-84
2021/08/01 03:13:02;;;;;;;14.65;7.43;;;16.00;99.90;;;;;;5050906;28;20048;-83
2021/08/01 03:15:42;;;;;;;13.35;6.72;;;16.10;99.90;;;;;;5046991;28;20048;-84
2021/08/01 03:18:17;;;;;;;17.95;8.13;;;16.10;99.90;;;;;;5054941;28;20041;-84
2021/08/01 03:21:05;;;;;;;14.95;6.90;;;16.00;99.90;;;;;;5050116;28;20037;-84
2021/08/01 03:24:10;;;;;;;14.90;7.13;;;16.00;99.90;;;;;;5051148;28;20632;-84
2021/08/01 03:27:08;;;;;;;19.98;7.57;;;16.00;99.90;;;;;;5039278;28;20057;-84
2021/08/01 03:29:46;;;;;;;15.00;6.50;;;15.20;99.90;;;;;;5050821;28;20065;-83
2021/08/01 03:32:33;;;;;;;15.15;6.85;;;16.00;99.90;;;;;;5048886;28;20050;-85
2021/08/01 03:35:05;;;;;;;20.00;7.18;;;15.90;99.90;;;;;;5049716;28;20051;-84
2021/08/01 03:37:51;;;;;;;20.13;7.32;;;15.80;99.90;;;;;;5039231;28;20049;-85
2021/08/01 03:40:57;;;;;;;16.25;7.50;;;15.90;99.90;;;;;;5039710;28;20049;-84
2021/08/01 03:43:26;;;;;;;12.98;6.88;;;15.80;99.90;;;;;;5048314;28;20044;-85
2021/08/01 03:46:21;;;;;;;15.57;8.18;;;15.90;99.90;;;;;;5038450;28;20643;-85
2021/08/01 03:49:15;;;;;;;13.10;6.80;;;15.80;99.90;;;;;;5036742;28;20060;-84
2021/08/01 03:51:48;;;;;;;12.82;7.10;;;15.80;99.90;;;;;;5051404;28;20049;-85
2021/08/01 03:54:18;;;;;;;18.88;8.45;;;15.80;99.90;;;;;;5048514;28;20046;-85
2021/08/01 03:56:52;;;;;;;15.13;7.03;;;15.70;99.90;;;;;;5041216;28;20052;-84
2021/08/01 03:59:39;;;;;;;13.32;6.53;;;15.70;99.90;;;;;;5062454;28;20037;-85
2021/08/01 04:02:42;;;;;;;12.50;6.82;;;15.80;99.90;;;;;;5034368;28;20493;-84
2021/08/01 04:05:25;;;;;;;18.42;8.43;;;15.70;99.90;;;;;;5078951;28;20049;-85
2021/08/01 04:08:04;;;;;;;11.93;6.70;;;15.60;99.90;;;;;;5051845;28;20043;-86
2021/08/01 04:10:42;;;;;;;16.83;7.65;;;15.30;99.90;;;;;;5038789;28;20045;-85
2021/08/01 04:13:23;;;;;;;14.35;6.53;;;15.70;99.90;;;;;;5077677;28;20051;-84
2021/08/01 04:16:11;;;;;;;13.55;7.25;;;15.50;99.90;;;;;;5057216;28;20055;-85
2021/08/01 04:18:52;;;;;;;12.48;6.60;;;15.40;99.90;;;;;;5036649;28;20063;-84
2021/08/01 04:21:31;;;;;;;14.98;7.43;;;15.30;99.90;;;;;;5052139;28;20056;-85
2021/08/01 04:24:06;;;;;;;12.40;7.32;;;15.30;99.90;;;;;;5051081;28;20041;-85
2021/08/01 04:26:39;;;;;;;12.85;6.47;;;15.40;99.90;;;;;;5050285;28;20045;-85
2021/08/01 04:29:18;;;;;;;14.45;7.68;;;15.40;99.90;;;;;;5031016;28;20059;-85
2021/08/01 04:31:54;;;;;;;17.25;7.07;;;15.40;99.90;;;;;;5031320;28;20071;-84
2021/08/01 04:34:39;;;;;;;15.90;7.40;;;15.20;99.90;;;;;;5035256;28;20048;-84
2021/08/01 04:37:32;;;;;;;;;;;;;;;;;;;;;
2021/08/01 04:40:11;;;;;;;14.40;7.05;;;15.30;99.90;;;;;;5051512;28;20052;-85
2021/08/01 04:42:47;;;;;;;17.90;7.57;;;15.30;99.90;;;;;;5059624;28;20051;-84
2021/08/01 04:45:21;;;;;;;17.05;8.23;;;15.60;99.90;;;;;;5019447;28;20049;-84
2021/08/01 04:48:30;;;;;;;;;;;;;;;;;;;;;
2021/08/01 04:51:27;;;;;;;15.45;7.03;;;15.40;99.90;;;;;;5039750;28;20059;-85
2021/08/01 04:54:04;;;;;;;19.55;7.72;;;15.40;99.90;;;;;;5058596;28;20163;-85
2021/08/01 04:57:17;;;;;;;;;;;;;;;;;;;;;
2021/08/01 05:00:23;;;;;;;11.75;6.07;;;14.40;99.90;;;;;;5067989;28;20049;-85
2021/08/01 05:03:08;;;;;;;11.20;5.40;;;15.50;99.90;;;;;;5047681;28;20068;-85
2021/08/01 05:06:04;;;;;;;;;;;;;;;;;;;;;
2021/08/01 05:09:12;;;;;;;10.20;5.63;;;15.60;99.90;;;;;;5040715;28;20037;-86
2021/08/01 05:12:26;;;;;;;12.73;6.07;;;15.70;99.90;;;;;;5049635;28;20053;-85
2021/08/01 05:15:09;;;;;;;13.93;5.05;;;15.70;99.90;;;;;;5035699;28;20053;-84
2021/08/01 05:17:42;;;;;;;15.07;6.90;;;15.70;99.90;;;;;;5047011;28;20041;-84
2021/08/01 05:20:17;;;;;;;14.20;5.57;;;15.70;99.90;;;;;;5034304;28;20053;-86
2021/08/01 05:23:26;;;;;;;17.05;5.57;;;14.70;99.90;;;;;;5028811;28;20051;-85
2021/08/01 05:26:18;;;;;;;18.20;6.65;;;15.40;99.90;;;;;;5048560;28;20059;-85
2021/08/01 05:29:02;;;;;;;12.73;5.93;;;15.80;99.90;;;;;;5038321;28;20053;-84
2021/08/01 05:31:57;;;;;;;11.90;5.28;;;15.90;99.90;;;;;;5031859;28;20052;-85
2021/08/01 05:34:34;;;;;;;12.35;4.85;;;15.90;99.90;;;;;;5031127;28;20053;-85
2021/08/01 05:37:40;;;;;;;10.60;6.07;;;15.90;99.90;;;;;;5047288;28;20052;-86
2021/08/01 05:40:11;;;;;;;11.90;5.50;;;15.90;99.90;;;;;;5027569;28;20063;-85
2021/08/01 05:43:18;;;;;;;;;;;;;;;;;;;;;
2021/08/01 05:46:15;;;;;;;;;;;;;;;;;;;;;
2021/08/01 05:49:16;;;;;;;14.10;5.93;;;16.20;99.90;;;;;;5028076;28;20045;-85
2021/08/01 05:52:15;;;;;;;12.73;6.70;;;16.10;99.90;;;;;;5037571;28;20050;-85
2021/08/01 05:55:03;;;;;;;18.08;5.47;;;16.10;99.90;;;;;;5048171;28;20056;-86
2021/08/01 05:57:41;;;;;;;12.23;5.93;;;16.20;99.90;;;;;;5032070;28;20049;-85
2021/08/01 06:00:10;;;;;;;13.27;5.57;;;16.20;99.90;;;;;;5037440;28;20054;-85
2021/08/01 06:03:22;;;;;;;13.13;5.40;;;14.90;99.90;;;;;;5037802;28;20049;-85
2021/08/01 06:06:22;;;;;;;16.40;5.97;;;16.60;99.90;;;;;;5030442;28;20041;-85
2021/08/01 06:09:09;;;;;;;13.18;6.22;;;16.20;99.90;;;;;;4998801;28;20049;-85
2021/08/01 06:11:45;;;;;;;11.60;5.35;;;16.30;99.90;;;;;;5021057;28;20068;-85
2021/08/01 06:14:48;;;;;;;16.42;5.18;;;16.30;99.90;;;;;;5047895;28;20045;-85
2021/08/01 06:18:02;;;;;;;19.80;6.55;;;16.30;99.90;;;;;;5036767;28;20041;-85
2021/08/01 06:20:46;;;;;;;13.93;5.35;;;16.30;99.90;;;;;;5059864;28;20051;-84
2021/08/01 06:23:19;;;;;;;13.45;6.45;;;16.40;99.90;;;;;;5037089;28;20042;-84
2021/08/01 06:26:11;;;;;;;15.82;6.03;;;16.30;99.90;;;;;;5039995;28;20049;-85
2021/08/01 06:32:49;;;;;;;12.65;5.50;;;16.40;99.90;;;;;;5064092;28;20037;-85
2021/08/01 06:35:52;;;;;;;15.63;6.35;;;16.40;99.90;;;;;;4973821;28;20055;-84
2021/08/01 06:38:52;;;;;;;;;;;;;;;;;;;;;
2021/08/01 06:42:02;;;;;;;13.35;6.22;;;16.40;99.90;;;;;;4989839;28;20058;-85
2021/08/01 06:45:07;;;;;;;18.58;5.65;;;16.40;99.90;;;;;;4990384;28;20054;-86
2021/08/01 06:48:07;;;;;;;10.32;4.82;;;16.40;99.90;;;;;;4974786;28;20062;-84
2021/08/01 06:50:43;;;;;;;12.70;5.15;;;16.50;99.90;;;;;;5002685;28;20046;-85
2021/08/01 06:53:15;;;;;;;15.90;6.47;;;16.50;99.90;;;;;;5057223;28;20046;-84
2021/08/01 06:55:49;;;;;;;13.68;5.93;;;16.50;99.90;;;;;;5027034;28;20839;-85
2021/08/01 06:58:32;;;;;;;10.38;4.78;;;16.60;99.90;;;;;;5005634;28;20715;-84
2021/08/01 07:01:14;;;;;;;12.55;6.43;;;16.60;99.90;;;;;;5015748;28;20052;-85
2021/08/01 07:03:58;;;;;;;14.07;5.82;;;16.60;99.90;;;;;;5028469;28;20048;-85
2021/08/01 07:06:30;;;;;;;11.15;6.72;;;16.70;99.90;;;;;;5032388;28;20045;-85
2021/08/01 07:09:34;;;;;;;18.17;5.95;;;16.70;99.90;;;;;;5050341;28;20041;-85
2021/08/01 07:12:10;;;;;;;19.60;8.05;;;16.80;99.90;;;;;;5036788;28;20044;-86
2021/08/01 07:15:00;;;;;;;12.32;6.07;;;16.40;99.90;;;;;;5058221;28;20049;-85
2021/08/01 07:17:32;;;;;;;24.00;7.88;;;16.80;99.90;;;;;;5005030;28;20045;-85
2021/08/01 07:20:35;;;;;;;13.30;5.65;;;16.90;99.90;;;;;;4947229;29;20048;-84
2021/08/01 07:23:29;;;;;;;13.18;6.43;;;17.00;99.90;;;;;;4941945;28;20066;-84
2021/08/01 07:25:58;;;;;;;12.52;5.90;;;16.90;99.90;;;;;;4955450;29;20069;-83
2021/08/01 07:28:26;;;;;;;19.30;6.75;;;16.90;99.90;;;;;;4960841;28;20058;-84
2021/08/01 07:30:55;;;;;;;17.88;7.30;;;17.00;99.90;;;;;;4948607;29;20047;-83
2021/08/01 07:33:24;;;;;;;12.38;6.93;;;17.00;99.90;;;;;;4965777;28;20050;-83
2021/08/01 07:35:53;;;;;;;10.70;6.80;;;17.00;99.90;;;;;;4990155;28;20044;-84
2021/08/01 07:38:21;;;;;;;13.15;6.10;;;17.10;99.90;;;;;;5048455;28;20049;-84
2021/08/01 07:40:49;;;;;;;12.35;6.22;;;17.10;99.90;;;;;;5048073;28;20045;-83
2021/08/01 07:43:17;;;;;;;16.08;7.45;;;17.20;99.90;;;;;;5048450;28;20059;-84
2021/08/01 07:45:45;;;;;;;13.88;6.70;;;17.20;99.90;;;;;;5032341;28;20056;-84
2021/08/01 07:48:13;;;;;;;18.73;7.72;;;17.30;99.90;;;;;;5033827;28;20053;-84
2021/08/01 07:50:43;;;;;;;13.90;6.28;;;17.40;99.90;;;;;;5067006;28;20037;-84
2021/08/01 07:53:16;;;;;;;13.63;6.70;;;16.30;99.90;;;;;;5049318;28;20049;-84
2021/08/01 07:55:45;;;;;;;11.45;5.65;;;17.40;99.90;;;;;;5061680;28;20049;-84
2021/08/01 07:58:15;;;;;;;13.27;6.35;;;17.40;99.90;;;;;;5050535;28;20059;-84
2021/08/01 08:00:49;;;;;;;15.80;7.63;;;17.40;99.90;;;;;;5051524;28;20045;-84
2021/08/01 08:03:17;;;;;;;19.27;7.65;;;17.40;99.90;;;;;;5038394;28;20059;-84
2021/08/01 08:05:46;;;;;;;16.00;7.38;;;17.40;99.90;;;;;;5048460;28;20057;-84
2021/08/01 08:08:30;;;;;;;13.45;7.70;;;17.40;99.90;;;;;;5042270;28;20045;-85
2021/08/01 08:11:02;;;;;;;13.55;6.85;;;17.30;99.90;;;;;;5029318;28;20045;-85
2021/08/01 08:13:31;;;;;;;13.00;6.00;;;17.40;99.90;;;;;;5047611;28;20495;-85
2021/08/01 08:16:02;;;;;;;15.60;7.28;;;17.40;99.90;;;;;;5045434;28;20061;-85
2021/08/01 08:18:30;;;;;;;15.88;8.50;;;17.30;99.90;;;;;;5047264;28;20071;-84
2021/08/01 08:20:58;;;;;;;14.95;7.35;;;17.40;99.90;;;;;;5057305;28;20039;-84
2021/08/01 08:23:30;;;;;;;13.30;6.45;;;17.40;99.90;;;;;;5043397;28;20045;-86
2021/08/01 08:25:59;;;;;;;18.30;6.97;;;17.10;99.90;;;;;;5046701;28;20048;-85
2021/08/01 08:28:27;;;;;;;13.40;7.72;;;17.50;99.90;;;;;;5045240;28;20061;-84
2021/08/01 08:30:56;;;;;;;16.50;7.22;;;17.50;99.90;;;;;;5028115;28;20068;-84
2021/08/01 08:33:27;;;;;;;15.70;7.05;;;17.60;99.90;;;;;;5043994;28;20037;-84
2021/08/01 08:35:58;;;;;;;15.90;5.95;;;17.60;99.90;;;;;;5044430;28;20495;-84
2021/08/01 08:38:26;;;;;;;15.32;6.72;;;17.70;99.90;;;;;;5044322;28;20052;-84
2021/08/01 08:40:55;;;;;;;13.85;6.63;;;17.80;99.90;;;;;;5044969;28;20037;-84
2021/08/01 08:43:25;;;;;;;10.98;5.93;;;17.90;99.90;;;;;;5049551;28;20068;-84
2021/08/01 08:45:57;;;;;;;15.63;5.95;;;18.00;99.90;;;;;;5045086;28;20043;-85
2021/08/01 08:48:29;;;;;;;11.85;6.22;;;18.20;99.90;;;;;;5044759;28;20045;-85
2021/08/01 08:50:57;;;;;;;11.35;6.03;;;18.20;99.90;;;;;;5044411;28;20037;-84
2021/08/01 08:53:30;;;;;;;9.15;5.43;;;18.40;99.90;;;;;;5044136;28;20045;-85
2021/08/01 08:55:59;;;;;;;10.38;5.47;;;18.40;99.90;;;;;;5029528;28;20050;-85
2021/08/01 08:58:30;;;;;;;14.20;6.00;;;18.50;99.90;;;;;;5043614;28;20041;-85
2021/08/01 09:00:59;;;;;;;12.67;4.57;;;18.50;99.90;;;;;;5042899;28;20056;-84
2021/08/01 09:03:31;;;;;;;12.48;5.32;;;18.60;99.90;;;;;;5043819;28;20067;-84
2021/08/01 09:06:01;;;;;;;10.18;4.82;;;18.70;99.90;;;;;;5047279;28;20049;-85
2021/08/01 09:08:32;;;;;;;12.20;5.53;;;18.80;99.90;;;;;;5048464;28;20049;-84
2021/08/01 09:11:02;;;;;;;13.20;4.65;;;18.90;99.90;;;;;;5030432;28;20051;-84
2021/08/01 09:13:51;;;;;;;8.82;4.88;;;19.10;99.90;;;;;;5023325;28;20044;-85
2021/08/01 09:16:21;;;;;;;12.65;6.00;;;19.20;99.90;;;;;;5048712;28;20033;-85
2021/08/01 09:18:55;;;;;;;11.20;6.82;;;19.30;99.90;;;;;;5049159;28;20053;-83
2021/08/01 09:21:38;;;;;;;10.73;5.72;;;18.90;99.90;;;;;;5067868;28;20045;-84
2021/08/01 09:24:07;;;;;;;13.60;6.65;;;19.40;99.90;;;;;;5043034;28;20059;-84
2021/08/01 09:26:58;;;;;;;17.00;6.00;;;19.40;99.90;;;;;;5034039;28;20044;-84
2021/08/01 09:29:55;;;;;;;10.10;6.85;;;19.50;99.90;;;;;;5031804;28;20053;-85
2021/08/01 09:33:01;;;;;;;10.43;5.43;;;19.50;99.90;;;;;;5050326;28;20033;-84
2021/08/01 09:35:45;;;;;;;13.80;5.95;;;19.60;99.90;;;;;;5065200;28;20060;-85
2021/08/01 09:38:16;;;;;;;9.43;4.55;;;19.70;99.90;;;;;;5046432;28;20049;-85
2021/08/01 09:41:06;;;;;;;9.55;4.53;;;19.80;99.90;;;;;;5044879;28;20067;-85
2021/08/01 09:43:48;;;;;;;8.02;4.45;;;19.80;99.90;;;;;;5064909;28;20060;-85
2021/08/01 09:46:43;;;;;;;6.35;3.90;;;19.90;99.90;;;;;;5047687;28;20045;-85
2021/08/01 09:49:17;;;;;;;12.65;5.43;;;20.00;99.90;;;;;;5032563;28;20051;-86
2021/08/01 09:51:49;;;;;;;10.50;4.63;;;20.00;99.90;;;;;;5049751;28;20055;-84
2021/08/01 09:54:25;;;;;;;8.70;4.30;;;20.10;99.90;;;;;;5007994;28;20049;-84
2021/08/01 09:57:06;;;;;;;10.85;3.80;;;20.20;99.90;;;;;;5039758;28;20045;-84
2021/08/01 09:59:40;;;;;;;6.47;3.85;;;20.30;99.90;;;;;;5049767;28;20052;-84
2021/08/01 10:02:11;;;;;;;9.98;4.40;;;20.20;99.90;;;;;;5046972;28;20048;-86
2021/08/01 10:04:41;;;;;;;6.85;3.90;;;20.20;99.90;;;;;;5036782;28;20049;-84
2021/08/01 10:07:16;;;;;;;9.02;3.22;;;20.30;99.90;;;;;;5034262;28;20056;-85
2021/08/01 10:09:51;;;;;;;8.05;3.85;;;20.30;99.90;;;;;;5024460;28;20041;-85
2021/08/01 10:12:44;;;;;;;6.35;3.75;;;20.40;99.90;;;;;;5023215;28;20049;-84
2021/08/01 10:15:13;;;;;;;5.43;3.20;;;20.50;99.90;;;;;;5044768;28;20053;-84
2021/08/01 10:17:41;;;;;;;9.95;3.78;;;20.70;99.90;;;;;;5043157;28;20063;-84
2021/08/01 10:20:22;;;;;;;7.53;3.80;;;20.70;99.90;;;;;;5038676;28;20053;-85
2021/08/01 10:23:05;;;;;;;11.02;4.10;;;20.70;99.90;;;;;;5044425;28;20041;-84
2021/08/01 10:25:36;;;;;;;5.03;3.42;;;20.80;99.90;;;;;;5057398;28;20049;-82
2021/08/01 10:28:06;;;;;;;9.02;2.70;;;20.90;99.90;;;;;;5048838;28;20049;-84
2021/08/01 10:30:38;;;;;;;6.32;2.90;;;21.00;99.90;;;;;;5048551;28;20046;-84
2021/08/01 10:33:19;;;;;;;8.20;3.10;;;21.10;99.90;;;;;;5030090;28;20055;-84
2021/08/01 10:35:59;;;;;;;8.57;2.80;;;21.20;99.90;;;;;;5044178;28;20045;-86
2021/08/01 10:38:35;;;;;;;3.25;2.30;;;21.30;99.90;;;;;;5029590;28;20348;-83
2021/08/01 10:41:15;;;;;;;4.03;2.35;;;21.70;99.90;;;;;;5050095;28;20049;-83
2021/08/01 10:44:03;;;;;;;5.57;2.28;;;21.30;99.90;;;;;;5033909;28;20041;-84
2021/08/01 10:46:37;;;;;;;5.97;2.47;;;21.20;99.90;;;;;;5043665;28;20041;-84
2021/08/01 10:49:11;;;;;;;6.63;3.30;;;21.10;99.90;;;;;;5014203;28;20054;-84
2021/08/01 10:51:42;;;;;;;9.02;2.83;;;20.30;99.90;;;;;;5030065;28;20498;-84
2021/08/01 10:54:19;;;;;;;8.95;2.78;;;20.70;99.90;;;;;;5044333;28;20045;-85
2021/08/01 10:57:18;;;;;;;9.40;2.80;;;20.50;99.90;;;;;;5051415;28;20041;-83
2021/08/01 11:00:08;;;;;;;8.00;2.78;;;20.40;99.90;;;;;;5061820;28;20039;-84
2021/08/01 11:02:37;;;;;;;4.05;2.80;;;20.20;99.90;;;;;;5029852;28;20049;-84
2021/08/01 11:05:35;;;;;;;6.03;2.67;;;20.10;99.90;;;;;;5032444;28;20053;-84
2021/08/01 11:08:06;;;;;;;9.20;2.83;;;19.10;99.90;;;;;;5039482;28;20060;-84
2021/08/01 11:10:36;;;;;;;8.63;2.38;;;19.90;99.90;;;;;;5034674;28;20033;-85
2021/08/01 11:13:24;;;;;;;4.25;2.55;;;19.50;99.90;;;;;;5043863;28;20040;-84
2021/08/01 11:15:53;;;;;;;6.90;2.95;;;19.40;99.90;;;;;;5057712;28;20040;-84
2021/08/01 11:18:33;;;;;;;5.40;2.95;;;19.30;99.90;;;;;;5045020;28;20068;-85
2021/08/01 11:21:09;;;;;;;5.18;3.47;;;19.30;99.90;;;;;;5055596;28;20055;-84
2021/08/01 11:23:46;;;;;;;5.57;3.03;;;19.40;99.90;;;;;;5029561;28;20056;-84
2021/08/01 11:26:22;;;;;;;5.03;3.20;;;19.40;99.90;;;;;;5031676;28;20064;-83
2021/08/01 11:29:08;;;;;;;6.90;3.05;;;19.50;99.90;;;;;;5065949;28;20051;-84
2021/08/01 11:31:39;;;;;;;7.32;2.83;;;19.70;99.90;;;;;;5054655;28;20041;-83
2021/08/01 11:34:18;;;;;;;6.90;2.65;;;19.80;99.90;;;;;;5050170;28;20038;-85
2021/08/01 11:37:10;;;;;;;9.77;2.92;;;19.90;99.90;;;;;;5016859;28;20046;-85
2021/08/01 11:39:54;;;;;;;6.90;3.20;;;20.10;99.90;;;;;;5025543;28;20057;-84
2021/08/01 11:42:28;;;;;;;5.05;3.38;;;20.20;99.90;;;;;;5046918;28;20049;-84
2021/08/01 11:45:00;;;;;;;6.07;2.72;;;20.40;99.90;;;;;;5021891;28;20049;-84
2021/08/01 11:47:46;;;;;;;8.73;3.10;;;20.50;99.90;;;;;;5027201;28;20049;-84
2021/08/01 11:50:15;;;;;;;9.07;3.80;;;20.60;99.90;;;;;;5021283;28;20305;-83
2021/08/01 11:52:47;;;;;;;8.27;2.75;;;20.60;99.90;;;;;;5060274;28;20052;-84
2021/08/01 11:55:20;;;;;;;6.18;2.67;;;20.80;99.90;;;;;;5030349;28;20067;-84
2021/08/01 11:57:52;;;;;;;6.05;3.33;;;20.90;99.90;;;;;;5059552;28;20053;-84
2021/08/01 12:00:24;;;;;;;6.00;2.55;;;21.00;99.90;;;;;;5043835;28;20041;-83
2021/08/01 12:02:57;;;;;;;4.68;3.13;;;21.10;99.90;;;;;;5044475;28;20052;-83
2021/08/01 12:05:47;;;;;;;4.82;2.72;;;21.20;99.90;;;;;;5059867;28;20049;-84
2021/08/01 12:08:36;;;;;;;6.35;2.10;;;21.30;99.90;;;;;;5047445;28;20049;-84
2021/08/01 12:11:12;;;;;;;6.85;2.50;;;21.60;99.90;;;;;;5046158;28;20068;-87
2021/08/01 12:14:05;;;;;;;8.40;3.33;;;21.80;99.30;;;;;;5032480;28;20060;-84
2021/08/01 12:17:10;;;;;;;5.25;2.42;;;22.00;98.70;;;;;;5043070;28;20897;-85
2021/08/01 12:19:46;;;;;;;5.65;3.10;;;21.80;98.70;;;;;;5040408;28;20052;-84
2021/08/01 12:22:19;;;;;;;9.95;2.58;;;22.10;98.90;;;;;;5058170;28;20044;-84
2021/08/01 12:24:52;;;;;;;3.10;1.90;;;22.10;98.70;;;;;;5063339;28;20790;-84
2021/08/01 12:27:24;;;;;;;4.85;2.20;;;22.00;98.00;;;;;;5060032;28;20040;-84
2021/08/01 12:30:03;;;;;;;6.50;2.42;;;21.90;97.60;;;;;;5063849;28;20910;-84
2021/08/01 12:32:46;;;;;;;5.40;2.80;;;21.90;97.70;;;;;;5028922;28;20060;-85
2021/08/01 12:35:26;;;;;;;3.20;1.80;;;22.00;97.40;;;;;;5044485;28;20045;-85
2021/08/01 12:38:08;;;;;;;8.10;2.55;;;22.10;97.60;;;;;;5057739;28;20052;-83
2021/08/01 12:40:45;;;;;;;5.60;2.25;;;22.20;97.60;;;;;;5038909;28;20053;-85
2021/08/01 12:43:31;;;;;;;5.78;3.60;;;22.30;97.10;;;;;;5026868;28;20045;-85
2021/08/01 12:46:23;;;;;;;4.85;2.30;;;22.10;97.00;;;;;;5040114;28;20068;-84
2021/08/01 12:49:02;;;;;;;3.22;1.73;;;22.50;97.00;;;;;;5050574;28;20038;-82
2021/08/01 12:51:46;;;;;;;4.35;2.40;;;22.90;96.70;;;;;;5065194;28;20044;-83
2021/08/01 12:54:27;;;;;;;5.53;1.95;;;23.10;96.40;;;;;;5047596;28;20053;-83
2021/08/01 12:57:09;;;;;;;6.60;2.47;;;23.30;96.50;;;;;;5037143;28;20049;-83
2021/08/01 12:59:38;;;;;;;3.88;1.90;;;23.50;95.90;;;;;;5038219;28;20049;-85
2021/08/01 13:02:12;;;;;;;4.00;1.80;;;23.60;95.90;;;;;;5045232;28;20033;-83
2021/08/01 13:04:45;;;;;;;3.17;1.70;;;23.80;94.40;;;;;;5058883;28;20060;-84
2021/08/01 13:07:15;;;;;;;3.72;2.42;;;23.80;94.50;;;;;;5043904;28;20059;-85
2021/08/01 13:09:44;;;;;;;3.55;1.67;;;23.80;95.00;;;;;;5029409;28;20042;-82
2021/08/01 13:12:18;;;;;;;;;;;24.50;94.80;;;;;;5043565;28;20037;-83
2021/08/01 13:14:53;;;;;;;4.80;1.88;;;23.80;94.10;;;;;;5023559;28;19924;-82
2021/08/01 13:17:41;;;;;;;5.97;2.00;;;23.70;94.20;;;;;;5028786;28;20045;-82
2021/08/01 13:20:42;;;;;;;7.80;2.25;;;23.60;94.20;;;;;;5054994;28;20080;-84
2021/08/01 13:23:31;;;;;;;2.33;1.52;;;23.50;94.50;;;;;;5026980;28;20136;-84
2021/08/01 13:26:18;;;;;;;3.30;2.00;;;23.40;94.50;;;;;;5059092;28;20052;-82
2021/08/01 13:29:08;;;;;;;3.58;1.77;;;23.30;94.90;;;;;;5043558;28;20042;-85
2021/08/01 13:31:38;;;;;;;3.75;1.90;;;23.20;95.10;;;;;;5041243;28;20060;-83
2021/08/01 13:34:21;;;;;;;3.15;1.60;;;23.20;95.30;;;;;;5040331;28;20067;-82
2021/08/01 13:36:58;;;;;;;2.60;1.40;;;23.20;94.30;;;;;;5029732;28;20044;-82
2021/08/01 13:39:44;;;;;;;3.55;1.60;;;23.10;94.70;;;;;;5039067;28;20044;-83
2021/08/01 13:42:16;;;;;;;3.35;1.38;;;23.00;94.00;;;;;;5037326;28;20057;-84
2021/08/01 13:44:49;;;;;;;4.75;1.70;;;23.10;94.80;;;;;;5055954;28;20049;-86
2021/08/01 13:47:38;;;;;;;2.53;1.75;;;23.20;94.90;;;;;;5045735;28;20045;-85
2021/08/01 13:50:12;;;;;;;7.05;2.05;;;23.30;94.70;;;;;;5061537;28;20041;-84
2021/08/01 13:52:49;;;;;;;5.55;2.20;;;23.40;94.40;;;;;;5056753;28;20040;-84
2021/08/01 13:55:20;;;;;;;4.75;2.20;;;23.60;94.30;;;;;;5045612;28;20063;-84
2021/08/01 13:58:09;;;;;;;7.65;2.78;;;23.60;94.40;;;;;;5026907;28;20228;-85
2021/08/01 14:00:42;;;;;;;7.53;3.05;;;23.50;94.30;;;;;;5044730;28;20064;-84
2021/08/01 14:03:13;;;;;;;10.25;3.92;;;23.30;95.30;;;;;;5029332;28;20056;-83
2021/08/01 14:05:44;;;;;;;14.13;3.83;;;23.00;96.80;;;;;;5062763;28;20037;-84
2021/08/01 14:08:12;;;;;;;7.82;3.72;;;22.70;97.70;;;;;;5041942;28;20069;-82
2021/08/01 14:10:41;;;;;;;10.27;3.88;;;22.50;98.80;;;;;;5063345;28;20039;-82
2021/08/01 14:13:09;;;;;;;9.85;3.45;;;22.20;99.70;;;;;;5057358;28;20048;-82